Anzahl Datensätze: 144
min. Temperatur: 11.9 °C
max. Temperatur: 27.1 °C
max. Windgeschwindigkeit: 25.9 km/h
Niederschlagsumme: 0.0 mm
| Datum |
Zeit |
Temp °C |
Feuchte % |
Taupunkt °C |
Luftdruck hPa |
Wind km/h |
Windrichtung |
Strahlung w/m² |
Niederschlag mm |
|---|---|---|---|---|---|---|---|---|---|
| 08.08.2025 | 00:00 | 16.1 | 82 | 13.0 | 1018.1 | 0.0 | WSW | 0 | 0.0 |
| 08.08.2025 | 00:10 | 15.9 | 83 | 13.0 | 1018.0 | 0.0 | WSW | 0 | 0.0 |
| 08.08.2025 | 00:20 | 15.7 | 84 | 13.0 | 1018.2 | 0.0 | WSW | 0 | 0.0 |
| 08.08.2025 | 00:30 | 15.6 | 85 | 13.1 | 1018.2 | 0.0 | WSW | 0 | 0.0 |
| 08.08.2025 | 00:40 | 15.4 | 85 | 12.9 | 1018.2 | 0.0 | WSW | 0 | 0.0 |
| 08.08.2025 | 00:50 | 15.2 | 84 | 12.5 | 1018.1 | 0.0 | WSW | 0 | 0.0 |
| 08.08.2025 | 01:00 | 15.1 | 85 | 12.6 | 1018.2 | 0.0 | WSW | 0 | 0.0 |
| 08.08.2025 | 01:10 | 14.9 | 85 | 12.4 | 1018.1 | 0.0 | WSW | 0 | 0.0 |
| 08.08.2025 | 01:20 | 14.9 | 86 | 12.6 | 1018.1 | 0.0 | WSW | 0 | 0.0 |
| 08.08.2025 | 01:30 | 14.8 | 86 | 12.5 | 1017.9 | 0.0 | WSW | 0 | 0.0 |
| 08.08.2025 | 01:40 | 14.8 | 87 | 12.7 | 1017.9 | 0.0 | WSW | 0 | 0.0 |
| 08.08.2025 | 01:50 | 14.6 | 86 | 12.3 | 1018.0 | 0.0 | WSW | 0 | 0.0 |
| 08.08.2025 | 02:00 | 14.5 | 87 | 12.4 | 1018.1 | 0.0 | WSW | 0 | 0.0 |
| 08.08.2025 | 02:10 | 14.2 | 87 | 12.1 | 1018.1 | 0.0 | WSW | 0 | 0.0 |
| 08.08.2025 | 02:20 | 14.1 | 87 | 12.0 | 1018.2 | 0.0 | WSW | 0 | 0.0 |
| 08.08.2025 | 02:30 | 14.1 | 87 | 12.0 | 1018.2 | 0.0 | WSW | 0 | 0.0 |
| 08.08.2025 | 02:40 | 14.4 | 88 | 12.4 | 1018.1 | 0.0 | WSW | 0 | 0.0 |
| 08.08.2025 | 02:50 | 14.8 | 87 | 12.7 | 1017.9 | 0.0 | WSW | 0 | 0.0 |
| 08.08.2025 | 03:00 | 15.0 | 85 | 12.5 | 1017.9 | 0.0 | S | 0 | 0.0 |
| 08.08.2025 | 03:10 | 15.0 | 86 | 12.7 | 1017.8 | 0.0 | S | 0 | 0.0 |
| 08.08.2025 | 03:20 | 14.7 | 87 | 12.6 | 1017.8 | 0.0 | S | 0 | 0.0 |
| 08.08.2025 | 03:30 | 14.4 | 87 | 12.3 | 1017.6 | 0.0 | S | 0 | 0.0 |
| 08.08.2025 | 03:40 | 14.2 | 86 | 11.9 | 1017.5 | 0.0 | S | 0 | 0.0 |
| 08.08.2025 | 03:50 | 14.3 | 84 | 11.6 | 1017.6 | 0.0 | S | 0 | 0.0 |
| 08.08.2025 | 04:00 | 14.4 | 82 | 11.4 | 1017.6 | 0.0 | S | 0 | 0.0 |
| 08.08.2025 | 04:10 | 14.3 | 83 | 11.5 | 1017.8 | 0.0 | S | 0 | 0.0 |
| 08.08.2025 | 04:20 | 14.0 | 83 | 11.2 | 1017.8 | 0.0 | S | 0 | 0.0 |
| 08.08.2025 | 04:30 | 13.8 | 83 | 11.0 | 1017.9 | 0.0 | S | 0 | 0.0 |
| 08.08.2025 | 04:40 | 13.9 | 83 | 11.1 | 1018.0 | 0.0 | S | 0 | 0.0 |
| 08.08.2025 | 04:50 | 13.9 | 85 | 11.4 | 1017.9 | 0.0 | S | 0 | 0.0 |
| 08.08.2025 | 05:00 | 13.4 | 84 | 10.8 | 1017.8 | 0.0 | S | 0 | 0.0 |
| 08.08.2025 | 05:10 | 13.2 | 86 | 10.9 | 1017.9 | 0.0 | S | 0 | 0.0 |
| 08.08.2025 | 05:20 | 12.9 | 87 | 10.8 | 1017.9 | 0.0 | S | 0 | 0.0 |
| 08.08.2025 | 05:30 | 12.6 | 88 | 10.7 | 1018.0 | 0.0 | S | 0 | 0.0 |
| 08.08.2025 | 05:40 | 12.4 | 88 | 10.5 | 1018.0 | 0.0 | S | 0 | 0.0 |
| 08.08.2025 | 05:50 | 12.3 | 88 | 10.4 | 1018.0 | 0.0 | S | 0 | 0.0 |
| 08.08.2025 | 06:00 | 12.2 | 88 | 10.3 | 1017.9 | 0.0 | S | 0 | 0.0 |
| 08.08.2025 | 06:10 | 12.2 | 88 | 10.3 | 1018.3 | 0.0 | S | 0 | 0.0 |
| 08.08.2025 | 06:20 | 12.0 | 89 | 10.2 | 1018.4 | 0.0 | S | 5 | 0.0 |
| 08.08.2025 | 06:30 | 12.1 | 90 | 10.5 | 1018.3 | 0.0 | S | 7 | 0.0 |
| 08.08.2025 | 06:40 | 11.9 | 90 | 10.3 | 1018.5 | 0.0 | S | 14 | 0.0 |
| 08.08.2025 | 06:50 | 12.1 | 90 | 10.5 | 1018.5 | 0.0 | S | 25 | 0.0 |
| 08.08.2025 | 07:00 | 12.1 | 90 | 10.5 | 1018.7 | 0.0 | S | 21 | 0.0 |
| 08.08.2025 | 07:10 | 12.2 | 90 | 10.6 | 1018.7 | 0.0 | S | 30 | 0.0 |
| 08.08.2025 | 07:20 | 12.7 | 90 | 11.1 | 1018.8 | 0.0 | S | 39 | 0.0 |
| 08.08.2025 | 07:30 | 13.2 | 90 | 11.6 | 1018.8 | 0.0 | S | 46 | 0.0 |
| 08.08.2025 | 07:40 | 13.3 | 90 | 11.7 | 1018.7 | 0.0 | S | 28 | 0.0 |
| 08.08.2025 | 07:50 | 13.7 | 91 | 12.3 | 1019.0 | 0.0 | S | 40 | 0.0 |
| 08.08.2025 | 08:00 | 13.9 | 89 | 12.1 | 1019.0 | 1.4 | NNO | 40 | 0.0 |
| 08.08.2025 | 08:10 | 14.7 | 87 | 12.6 | 1019.1 | 0.0 | NNO | 42 | 0.0 |
| 08.08.2025 | 08:20 | 15.3 | 84 | 12.6 | 1019.0 | 0.0 | NNO | 49 | 0.0 |
| 08.08.2025 | 08:30 | 16.2 | 82 | 13.1 | 1019.0 | 1.4 | ONO | 86 | 0.0 |
| 08.08.2025 | 08:40 | 16.9 | 81 | 13.6 | 1019.2 | 0.0 | ONO | 121 | 0.0 |
| 08.08.2025 | 08:50 | 17.2 | 80 | 13.7 | 1019.1 | 0.0 | ONO | 127 | 0.0 |
| 08.08.2025 | 09:00 | 17.1 | 81 | 13.8 | 1019.1 | 0.0 | ONO | 104 | 0.0 |
| 08.08.2025 | 09:10 | 17.3 | 80 | 13.8 | 1019.2 | 0.0 | ONO | 53 | 0.0 |
| 08.08.2025 | 09:20 | 18.2 | 75 | 13.7 | 1019.1 | 0.0 | ONO | 77 | 0.0 |
| 08.08.2025 | 09:30 | 19.2 | 68 | 13.1 | 1019.2 | 0.0 | SSO | 93 | 0.0 |
| 08.08.2025 | 09:40 | 19.9 | 62 | 12.4 | 1019.1 | 0.0 | SSO | 123 | 0.0 |
| 08.08.2025 | 09:50 | 20.4 | 61 | 12.6 | 1019.2 | 0.0 | WSW | 461 | 0.0 |
| 08.08.2025 | 10:00 | 20.8 | 58 | 12.2 | 1019.2 | 1.4 | SSW | 468 | 0.0 |
| 08.08.2025 | 10:10 | 21.1 | 57 | 12.2 | 1019.3 | 1.4 | W | 492 | 0.0 |
| 08.08.2025 | 10:20 | 21.4 | 58 | 12.8 | 1019.2 | 0.0 | W | 513 | 0.0 |
| 08.08.2025 | 10:30 | 21.8 | 53 | 11.8 | 1019.3 | 0.0 | S | 538 | 0.0 |
| 08.08.2025 | 10:40 | 22.2 | 55 | 12.7 | 1019.4 | 0.0 | W | 237 | 0.0 |
| 08.08.2025 | 10:50 | 22.5 | 51 | 11.9 | 1019.6 | 0.0 | SW | 598 | 0.0 |
| 08.08.2025 | 11:00 | 22.6 | 54 | 12.8 | 1019.5 | 0.0 | W | 613 | 0.0 |
| 08.08.2025 | 11:10 | 23.1 | 50 | 12.1 | 1019.5 | 0.0 | W | 633 | 0.0 |
| 08.08.2025 | 11:20 | 23.2 | 48 | 11.6 | 1019.5 | 1.4 | WSW | 687 | 0.0 |
| 08.08.2025 | 11:30 | 23.7 | 48 | 12.0 | 1019.7 | 3.2 | WNW | 671 | 0.0 |
| 08.08.2025 | 11:40 | 23.6 | 50 | 12.6 | 1019.7 | 4.7 | WNW | 698 | 0.0 |
| 08.08.2025 | 11:50 | 23.7 | 49 | 12.4 | 1019.6 | 3.2 | WNW | 715 | 0.0 |
| 08.08.2025 | 12:00 | 24.1 | 46 | 11.8 | 1019.6 | 1.4 | W | 803 | 0.0 |
| 08.08.2025 | 12:10 | 24.3 | 46 | 11.9 | 1019.6 | 0.0 | WSW | 759 | 0.0 |
| 08.08.2025 | 12:20 | 24.6 | 46 | 12.2 | 1019.6 | 4.7 | W | 687 | 0.0 |
| 08.08.2025 | 12:30 | 25.2 | 44 | 12.1 | 1019.6 | 3.2 | SW | 671 | 0.0 |
| 08.08.2025 | 12:40 | 25.7 | 44 | 12.5 | 1019.6 | 3.2 | SSW | 793 | 0.0 |
| 08.08.2025 | 12:50 | 26.1 | 45 | 13.2 | 1019.7 | 1.4 | S | 466 | 0.0 |
| 08.08.2025 | 13:00 | 26.2 | 40 | 11.5 | 1019.7 | 3.2 | SO | 814 | 0.0 |
| 08.08.2025 | 13:10 | 26.6 | 40 | 11.9 | 1019.6 | 3.2 | SSW | 835 | 0.0 |
| 08.08.2025 | 13:20 | 26.8 | 41 | 12.4 | 1019.7 | 6.5 | SSW | 1125 | 0.0 |
| 08.08.2025 | 13:30 | 26.7 | 42 | 12.7 | 1019.7 | 6.5 | W | 376 | 0.0 |
| 08.08.2025 | 13:40 | 26.1 | 38 | 10.7 | 1019.6 | 9.7 | SSW | 359 | 0.0 |
| 08.08.2025 | 13:50 | 25.7 | 40 | 11.1 | 1019.6 | 4.7 | W | 367 | 0.0 |
| 08.08.2025 | 14:00 | 26.3 | 37 | 10.4 | 1019.6 | 9.7 | WSW | 875 | 0.0 |
| 08.08.2025 | 14:10 | 26.5 | 35 | 9.8 | 1019.6 | 9.7 | W | 624 | 0.0 |
| 08.08.2025 | 14:20 | 26.2 | 37 | 10.4 | 1019.6 | 6.5 | W | 360 | 0.0 |
| 08.08.2025 | 14:30 | 26.2 | 38 | 10.8 | 1019.5 | 3.2 | SW | 519 | 0.0 |
| 08.08.2025 | 14:40 | 27.1 | 39 | 12.0 | 1019.4 | 6.5 | W | 777 | 0.0 |
| 08.08.2025 | 14:50 | 26.4 | 43 | 12.8 | 1019.6 | 7.9 | WSW | 457 | 0.0 |
| 08.08.2025 | 15:00 | 25.8 | 38 | 10.4 | 1019.6 | 6.5 | W | 381 | 0.0 |
| 08.08.2025 | 15:10 | 25.9 | 41 | 11.6 | 1019.6 | 4.7 | WSW | 422 | 0.0 |
| 08.08.2025 | 15:20 | 26.8 | 37 | 10.9 | 1019.7 | 9.7 | WSW | 550 | 0.0 |
| 08.08.2025 | 15:30 | 27.1 | 40 | 12.3 | 1019.6 | 6.5 | WSW | 770 | 0.0 |
| 08.08.2025 | 15:40 | 26.7 | 40 | 12.0 | 1019.5 | 11.2 | WNW | 765 | 0.0 |
| 08.08.2025 | 15:50 | 26.7 | 42 | 12.7 | 1019.4 | 13.0 | W | 721 | 0.0 |
| 08.08.2025 | 16:00 | 26.8 | 38 | 11.3 | 1019.5 | 6.5 | W | 729 | 0.0 |
| 08.08.2025 | 16:10 | 26.7 | 40 | 12.0 | 1019.4 | 11.2 | SSO | 833 | 0.0 |
| 08.08.2025 | 16:20 | 26.0 | 41 | 11.7 | 1019.4 | 9.7 | W | 359 | 0.0 |
| 08.08.2025 | 16:30 | 26.7 | 44 | 13.4 | 1019.4 | 7.9 | SW | 691 | 0.0 |
| 08.08.2025 | 16:40 | 26.7 | 44 | 13.4 | 1019.3 | 7.9 | WNW | 686 | 0.0 |
| 08.08.2025 | 16:50 | 26.5 | 46 | 13.9 | 1019.4 | 9.7 | NNW | 703 | 0.0 |
| 08.08.2025 | 17:00 | 26.6 | 46 | 14.0 | 1019.4 | 6.5 | NNO | 645 | 0.0 |
| 08.08.2025 | 17:10 | 26.4 | 46 | 13.8 | 1019.6 | 6.5 | NW | 483 | 0.0 |
| 08.08.2025 | 17:20 | 26.3 | 47 | 14.1 | 1019.5 | 3.2 | W | 255 | 0.0 |
| 08.08.2025 | 17:30 | 25.9 | 49 | 14.4 | 1019.5 | 6.5 | W | 404 | 0.0 |
| 08.08.2025 | 17:40 | 25.9 | 51 | 15.0 | 1019.5 | 3.2 | WNW | 378 | 0.0 |
| 08.08.2025 | 17:50 | 26.2 | 49 | 14.6 | 1019.4 | 3.2 | W | 388 | 0.0 |
| 08.08.2025 | 18:00 | 26.4 | 51 | 15.4 | 1019.4 | 3.2 | SW | 422 | 0.0 |
| 08.08.2025 | 18:10 | 26.3 | 51 | 15.4 | 1019.4 | 3.2 | WNW | 345 | 0.0 |
| 08.08.2025 | 18:20 | 26.2 | 49 | 14.6 | 1019.4 | 6.5 | W | 292 | 0.0 |
| 08.08.2025 | 18:30 | 25.9 | 47 | 13.7 | 1019.3 | 7.9 | W | 362 | 0.0 |
| 08.08.2025 | 18:40 | 25.8 | 44 | 12.6 | 1019.3 | 6.5 | WSW | 353 | 0.0 |
| 08.08.2025 | 18:50 | 25.8 | 47 | 13.6 | 1019.3 | 6.5 | W | 309 | 0.0 |
| 08.08.2025 | 19:00 | 25.8 | 48 | 14.0 | 1019.3 | 6.5 | SW | 288 | 0.0 |
| 08.08.2025 | 19:10 | 25.6 | 49 | 14.1 | 1019.4 | 3.2 | WNW | 199 | 0.0 |
| 08.08.2025 | 19:20 | 25.4 | 52 | 14.8 | 1019.4 | 1.4 | WNW | 202 | 0.0 |
| 08.08.2025 | 19:30 | 25.2 | 52 | 14.6 | 1019.5 | 3.2 | W | 211 | 0.0 |
| 08.08.2025 | 19:40 | 25.0 | 51 | 14.2 | 1019.5 | 3.2 | W | 165 | 0.0 |
| 08.08.2025 | 19:50 | 24.8 | 52 | 14.3 | 1019.7 | 3.2 | WSW | 105 | 0.0 |
| 08.08.2025 | 20:00 | 24.4 | 53 | 14.2 | 1019.6 | 0.0 | W | 95 | 0.0 |
| 08.08.2025 | 20:10 | 24.3 | 56 | 15.0 | 1019.7 | 0.0 | W | 72 | 0.0 |
| 08.08.2025 | 20:20 | 23.9 | 59 | 15.4 | 1019.8 | 0.0 | W | 39 | 0.0 |
| 08.08.2025 | 20:30 | 23.2 | 60 | 15.0 | 1019.9 | 0.0 | WNW | 23 | 0.0 |
| 08.08.2025 | 20:40 | 22.8 | 62 | 15.1 | 1019.8 | 0.0 | WNW | 14 | 0.0 |
| 08.08.2025 | 20:50 | 22.4 | 63 | 15.0 | 1019.8 | 0.0 | WNW | 9 | 0.0 |
| 08.08.2025 | 21:00 | 21.9 | 64 | 14.8 | 1019.8 | 0.0 | WNW | 0 | 0.0 |
| 08.08.2025 | 21:10 | 21.4 | 67 | 15.0 | 1019.9 | 0.0 | WNW | 0 | 0.0 |
| 08.08.2025 | 21:20 | 20.8 | 69 | 14.9 | 1019.9 | 0.0 | WNW | 0 | 0.0 |
| 08.08.2025 | 21:30 | 20.2 | 72 | 15.0 | 1020.0 | 0.0 | WNW | 0 | 0.0 |
| 08.08.2025 | 21:40 | 19.6 | 75 | 15.0 | 1020.1 | 0.0 | WNW | 0 | 0.0 |
| 08.08.2025 | 21:50 | 19.2 | 77 | 15.1 | 1020.1 | 0.0 | WNW | 0 | 0.0 |
| 08.08.2025 | 22:00 | 18.8 | 78 | 14.9 | 1020.3 | 0.0 | WNW | 0 | 0.0 |
| 08.08.2025 | 22:10 | 18.7 | 78 | 14.8 | 1020.2 | 0.0 | WNW | 0 | 0.0 |
| 08.08.2025 | 22:20 | 18.7 | 79 | 15.0 | 1020.3 | 0.0 | WNW | 0 | 0.0 |
| 08.08.2025 | 22:30 | 18.5 | 78 | 14.6 | 1020.3 | 0.0 | WNW | 0 | 0.0 |
| 08.08.2025 | 22:40 | 18.6 | 78 | 14.7 | 1020.2 | 0.0 | WNW | 0 | 0.0 |
| 08.08.2025 | 22:50 | 18.6 | 79 | 14.9 | 1020.3 | 0.0 | WNW | 0 | 0.0 |
| 08.08.2025 | 23:00 | 18.4 | 79 | 14.7 | 1020.3 | 0.0 | WNW | 0 | 0.0 |
| 08.08.2025 | 23:10 | 18.3 | 81 | 15.0 | 1020.3 | 0.0 | WNW | 0 | 0.0 |
| 08.08.2025 | 23:20 | 18.2 | 81 | 14.9 | 1020.2 | 0.0 | WNW | 0 | 0.0 |
| 08.08.2025 | 23:30 | 17.8 | 81 | 14.5 | 1020.2 | 0.0 | WNW | 0 | 0.0 |
| 08.08.2025 | 23:40 | 17.7 | 83 | 14.8 | 1020.1 | 0.0 | WNW | 0 | 0.0 |
| 08.08.2025 | 23:50 | 17.6 | 82 | 14.5 | 1020.3 | 0.0 | WNW | 0 | 0.0 |